Time;durP1;ratioP1;P1;durP2;ratioP2;P2;SDS_P1;SDS_P2;PMS_P1;PMS_P2;Temp;Humidity;BMP_temperature;BMP_pressure;BME280_temperature;BME280_humidity;BME280_pressure;Samples;Min_cycle;Max_cycle;Signal;HPM_P1;HPM_P2
2023/08/07 00:00:16;;;;;;;0.00;0.00;;;;;;;13.55;79.86;95102.84;4339183;32;20197;-65
2023/08/07 00:02:42;;;;;;;0.07;0.07;;;;;;;13.63;79.35;95110.03;4349568;32;20201;-65
2023/08/07 00:05:07;;;;;;;0.10;0.10;;;;;;;13.52;80.20;95086.69;4347140;32;20193;-66
2023/08/07 00:07:33;;;;;;;0.47;0.13;;;;;;;13.51;78.94;95111.81;4344713;32;20302;-65
2023/08/07 00:09:58;;;;;;;0.10;0.10;;;;;;;13.44;79.17;95109.63;4338851;32;20290;-66
2023/08/07 00:12:23;;;;;;;0.30;0.30;;;;;;;13.58;80.51;95120.88;4349519;32;20193;-64
2023/08/07 00:14:50;;;;;;;0.40;0.40;;;;;;;13.48;79.82;95123.87;4346305;32;20213;-65
2023/08/07 00:17:16;;;;;;;0.10;0.10;;;;;;;13.38;79.97;95121.53;4340049;32;20198;-65
2023/08/07 00:19:41;;;;;;;0.43;0.43;;;;;;;13.35;80.37;95124.81;4352890;32;20184;-65
2023/08/07 00:22:07;;;;;;;0.10;0.10;;;;;;;13.35;80.20;95119.50;4348108;32;20198;-66
2023/08/07 00:24:32;;;;;;;0.20;0.20;;;;;;;13.38;80.18;95118.88;4340227;32;20197;-65
2023/08/07 00:26:57;;;;;;;1.03;0.30;;;;;;;13.48;80.67;95139.09;4349975;32;20254;-65
2023/08/07 00:29:23;;;;;;;0.20;0.20;;;;;;;13.39;80.70;95141.75;4354657;32;20224;-65
2023/08/07 00:31:48;;;;;;;0.17;0.13;;;;;;;13.38;80.30;95124.19;4341959;32;20203;-65
2023/08/07 00:34:13;;;;;;;0.17;0.17;;;;;;;13.16;80.92;95148.34;4342132;32;20288;-65
2023/08/07 00:36:38;;;;;;;0.10;0.10;;;;;;;13.15;80.30;95149.41;4350324;32;20182;-65
2023/08/07 00:39:04;;;;;;;0.27;0.27;;;;;;;13.25;81.77;95141.13;4351507;32;20200;-65
2023/08/07 00:41:29;;;;;;;0.30;0.30;;;;;;;13.08;80.99;95144.56;4337378;32;20249;-65
2023/08/07 00:43:55;;;;;;;0.23;0.23;;;;;;;13.09;81.91;95149.53;4338290;32;20224;-64
2023/08/07 00:46:20;;;;;;;0.00;0.00;;;;;;;13.24;81.92;95161.66;4334952;32;20197;-65
2023/08/07 00:48:46;;;;;;;0.10;0.10;;;;;;;13.09;84.02;95136.22;4345376;32;20253;-65
2023/08/07 00:51:11;;;;;;;0.33;0.33;;;;;;;13.18;83.37;95146.13;4338607;32;20185;-65
2023/08/07 00:53:39;;;;;;;0.23;0.23;;;;;;;13.18;84.72;95151.47;4343861;32;20298;-65
2023/08/07 00:56:05;;;;;;;0.50;0.50;;;;;;;12.83;85.65;95154.09;4338476;32;20204;-64
2023/08/07 00:58:31;;;;;;;0.37;0.37;;;;;;;12.80;87.67;95149.38;4352347;32;20193;-65
2023/08/07 01:00:56;;;;;;;0.30;0.20;;;;;;;12.87;88.88;95152.38;4347098;32;20207;-65
2023/08/07 01:03:23;;;;;;;0.20;0.20;;;;;;;12.65;89.02;95139.19;4336218;32;20232;-65
2023/08/07 01:05:48;;;;;;;0.20;0.20;;;;;;;12.61;90.48;95133.69;4345825;32;20223;-65
2023/08/07 01:08:14;;;;;;;0.50;0.50;;;;;;;12.54;90.92;95140.56;4348558;32;20232;-65
2023/08/07 01:11:17;;;;;;;0.20;0.20;;;;;;;12.30;90.96;95147.06;4347662;32;20215;-65
2023/08/07 01:14:07;;;;;;;0.27;0.27;;;;;;;12.23;93.16;95140.63;4346246;32;24812;-65
2023/08/07 01:16:40;;;;;;;1.80;0.73;;;;;;;12.12;93.78;95137.44;4349794;32;20220;-65
2023/08/07 01:19:12;;;;;;;0.30;0.20;;;;;;;12.39;94.42;95141.78;4339884;32;20208;-65
2023/08/07 01:21:37;;;;;;;0.17;0.17;;;;;;;12.44;94.98;95143.50;4348641;32;20232;-65
2023/08/07 01:24:03;;;;;;;0.37;0.37;;;;;;;12.44;93.99;95159.47;4339605;32;20232;-65
2023/08/07 01:26:28;;;;;;;0.00;0.00;;;;;;;12.25;94.70;95138.44;4357030;32;20235;-65
2023/08/07 01:29:17;;;;;;;0.20;0.20;;;;;;;12.39;95.57;95142.56;4340806;32;20211;-65
2023/08/07 01:31:47;;;;;;;0.10;0.10;;;;;;;12.08;94.54;95152.44;4343838;32;20185;-66
2023/08/07 01:34:17;;;;;;;0.90;0.70;;;;;;;12.00;95.73;95156.66;4341438;32;20228;-65
2023/08/07 01:36:45;;;;;;;0.17;0.17;;;;;;;12.05;96.12;95155.75;4342340;32;20283;-66
2023/08/07 01:39:11;;;;;;;0.10;0.10;;;;;;;11.87;96.82;95152.19;4340849;32;20188;-65
2023/08/07 01:41:39;;;;;;;0.10;0.10;;;;;;;12.11;97.06;95157.16;4354842;32;20211;-65
2023/08/07 01:44:05;;;;;;;0.10;0.10;;;;;;;12.10;96.67;95160.91;4357139;32;20267;-65
2023/08/07 01:46:30;;;;;;;0.20;0.20;;;;;;;11.86;97.26;95161.25;4349997;32;20190;-65
2023/08/07 01:48:55;;;;;;;0.20;0.20;;;;;;;11.85;97.03;95159.69;4349883;32;20240;-65
2023/08/07 01:51:21;;;;;;;0.00;0.00;;;;;;;11.69;97.97;95166.44;4338363;32;20176;-65
2023/08/07 01:53:47;;;;;;;0.47;0.47;;;;;;;11.72;97.56;95160.53;4343886;32;20227;-65
2023/08/07 01:56:12;;;;;;;0.50;0.43;;;;;;;11.83;97.41;95171.72;4354594;32;20204;-65
2023/08/07 01:58:38;;;;;;;0.87;0.67;;;;;;;11.56;98.95;95164.66;4349111;32;20194;-65
2023/08/07 02:01:03;;;;;;;0.43;0.40;;;;;;;11.63;98.00;95160.50;4341332;32;20236;-65
2023/08/07 02:03:28;;;;;;;0.67;0.50;;;;;;;11.89;98.44;95154.53;4349110;32;20189;-66
2023/08/07 02:05:54;;;;;;;1.23;0.33;;;;;;;12.08;96.85;95168.41;4335295;32;20236;-64
2023/08/07 02:08:19;;;;;;;0.20;0.20;;;;;;;11.91;96.71;95166.44;4354397;32;20190;-65
2023/08/07 02:10:44;;;;;;;0.17;0.17;;;;;;;11.65;96.87;95176.87;4353218;32;20201;-65
2023/08/07 02:13:10;;;;;;;0.30;0.30;;;;;;;11.79;97.14;95170.75;4338547;32;20188;-65
2023/08/07 02:15:35;;;;;;;0.30;0.30;;;;;;;11.89;97.26;95176.59;4348197;32;20197;-66
2023/08/07 02:18:00;;;;;;;0.27;0.27;;;;;;;11.85;97.04;95165.00;4338361;32;20259;-65
2023/08/07 02:20:25;;;;;;;0.23;0.23;;;;;;;11.88;96.55;95168.91;4334410;32;20236;-65
2023/08/07 02:22:51;;;;;;;0.50;0.50;;;;;;;11.59;96.78;95172.81;4341684;32;20284;-65
2023/08/07 02:25:16;;;;;;;0.17;0.17;;;;;;;11.44;98.04;95181.12;4338546;32;20190;-65
2023/08/07 02:27:41;;;;;;;0.17;0.17;;;;;;;11.62;98.14;95180.16;4334045;32;20200;-65
2023/08/07 02:30:07;;;;;;;0.40;0.40;;;;;;;11.56;97.94;95178.72;4350459;32;20223;-65
2023/08/07 02:32:33;;;;;;;0.53;0.53;;;;;;;11.77;97.61;95173.72;4343647;32;20194;-65
2023/08/07 02:34:58;;;;;;;0.07;0.07;;;;;;;11.75;97.21;95177.75;4332311;32;20253;-65
2023/08/07 02:37:24;;;;;;;0.30;0.30;;;;;;;11.74;97.62;95179.59;4342775;32;20233;-64
2023/08/07 02:39:49;;;;;;;0.20;0.20;;;;;;;11.76;97.83;95185.44;4336177;32;20177;-65
2023/08/07 02:42:14;;;;;;;0.40;0.40;;;;;;;11.84;96.94;95190.03;4351217;32;20208;-65
2023/08/07 02:44:40;;;;;;;0.40;0.40;;;;;;;11.94;96.39;95194.28;4342289;32;20197;-66
2023/08/07 02:47:06;;;;;;;0.97;0.73;;;;;;;11.82;96.48;95191.41;4343335;32;20197;-65
2023/08/07 02:49:31;;;;;;;0.10;0.10;;;;;;;11.78;96.36;95196.56;4345454;32;20208;-65
2023/08/07 02:51:56;;;;;;;0.47;0.47;;;;;;;11.69;96.37;95199.13;4349578;32;20177;-65
2023/08/07 02:54:22;;;;;;;0.10;0.10;;;;;;;11.87;96.90;95199.25;4345576;32;20265;-65
2023/08/07 02:56:48;;;;;;;0.47;0.47;;;;;;;12.01;96.25;95194.66;4345855;32;20189;-65
2023/08/07 02:59:14;;;;;;;0.73;0.63;;;;;;;11.99;95.50;95199.50;4340158;32;20263;-65
2023/08/07 03:01:40;;;;;;;0.10;0.10;;;;;;;11.96;95.82;95192.91;4331169;32;20198;-65
2023/08/07 03:04:05;;;;;;;0.43;0.43;;;;;;;11.98;95.56;95208.56;4339088;32;20221;-65
2023/08/07 03:06:30;;;;;;;0.53;0.30;;;;;;;12.01;94.89;95199.97;4340363;32;20204;-65
2023/08/07 03:08:55;;;;;;;0.13;0.13;;;;;;;12.05;95.50;95199.03;4347767;32;20215;-65
2023/08/07 03:11:21;;;;;;;0.20;0.20;;;;;;;11.86;94.38;95206.44;4341316;32;20193;-65
2023/08/07 03:13:46;;;;;;;0.20;0.20;;;;;;;11.91;95.24;95205.53;4345445;32;20190;-65
2023/08/07 03:16:11;;;;;;;9.13;0.43;;;;;;;12.05;94.86;95203.59;4353580;32;20207;-65
2023/08/07 03:18:37;;;;;;;0.33;0.33;;;;;;;12.04;94.66;95204.69;4345909;32;20189;-64
2023/08/07 03:21:02;;;;;;;0.23;0.23;;;;;;;11.85;93.11;95217.38;4348662;32;20204;-65
2023/08/07 03:23:28;;;;;;;0.20;0.20;;;;;;;11.88;94.55;95206.91;4340830;32;20189;-65
2023/08/07 03:26:04;;;;;;;0.43;0.30;;;;;;;11.88;94.32;95216.75;4335727;32;20213;-67
2023/08/07 03:28:30;;;;;;;0.10;0.10;;;;;;;12.01;93.71;95202.62;4341037;32;20240;-65
2023/08/07 03:30:55;;;;;;;0.10;0.10;;;;;;;11.99;92.80;95216.22;4338681;32;20197;-64
2023/08/07 03:33:20;;;;;;;0.27;0.23;;;;;;;11.90;93.55;95203.97;4351081;32;20199;-65
2023/08/07 03:35:46;;;;;;;0.37;0.37;;;;;;;11.97;93.32;95199.00;4337225;32;20220;-65
2023/08/07 03:38:11;;;;;;;0.10;0.10;;;;;;;11.86;92.87;95211.75;4335675;32;20189;-65
2023/08/07 03:40:36;;;;;;;0.43;0.43;;;;;;;12.04;92.69;95212.66;4337549;32;20207;-65
2023/08/07 03:43:01;;;;;;;0.50;0.33;;;;;;;11.95;91.83;95207.28;4337639;32;20289;-65
2023/08/07 03:45:29;;;;;;;0.27;0.27;;;;;;;12.24;91.71;95209.47;4335563;32;20241;-65
2023/08/07 03:47:54;;;;;;;0.20;0.20;;;;;;;12.26;92.38;95217.91;4351772;32;20288;-64
2023/08/07 03:50:20;;;;;;;0.37;0.37;;;;;;;12.20;90.94;95223.69;4351133;32;20185;-65
2023/08/07 03:52:45;;;;;;;6.23;0.50;;;;;;;12.09;91.28;95233.78;4352425;32;20209;-65
2023/08/07 03:55:10;;;;;;;0.33;0.33;;;;;;;12.02;90.63;95218.28;4348693;32;20190;-65
2023/08/07 03:57:35;;;;;;;0.20;0.20;;;;;;;12.09;89.62;95233.78;4338662;32;20197;-65
2023/08/07 04:00:01;;;;;;;0.63;0.30;;;;;;;12.00;89.75;95227.66;4347470;32;20197;-65
2023/08/07 04:02:28;;;;;;;0.50;0.30;;;;;;;12.12;89.20;95224.41;4339217;32;20193;-65
2023/08/07 04:04:53;;;;;;;0.20;0.20;;;;;;;12.13;88.72;95225.97;4348423;32;20185;-64
2023/08/07 04:07:19;;;;;;;0.50;0.50;;;;;;;12.16;89.37;95242.12;4341789;32;20192;-65
2023/08/07 04:09:44;;;;;;;0.23;0.23;;;;;;;12.14;89.16;95241.62;4333597;32;20245;-65
2023/08/07 04:12:09;;;;;;;0.50;0.50;;;;;;;12.32;89.16;95229.22;4341980;32;20209;-65
2023/08/07 04:14:35;;;;;;;0.30;0.27;;;;;;;12.26;89.17;95243.75;4338947;32;20212;-65
2023/08/07 04:17:00;;;;;;;0.33;0.33;;;;;;;12.31;88.62;95247.03;4344975;32;20209;-64
2023/08/07 04:19:26;;;;;;;0.57;0.30;;;;;;;12.37;88.70;95242.38;4355464;32;20193;-65
2023/08/07 04:21:51;;;;;;;0.33;0.33;;;;;;;12.21;87.55;95244.66;4345085;32;20216;-64
2023/08/07 04:24:16;;;;;;;9.87;1.07;;;;;;;12.44;88.06;95241.97;4356194;32;20204;-65
2023/08/07 04:26:42;;;;;;;0.40;0.40;;;;;;;12.17;87.30;95249.00;4340475;32;20258;-65
2023/08/07 04:29:07;;;;;;;0.97;0.30;;;;;;;12.25;87.51;95231.53;4353735;32;20203;-65
2023/08/07 04:31:32;;;;;;;0.23;0.23;;;;;;;12.35;87.44;95233.91;4341757;32;20207;-64
2023/08/07 04:33:58;;;;;;;0.60;0.60;;;;;;;12.22;86.61;95245.44;4355343;32;20188;-65
2023/08/07 04:36:23;;;;;;;0.43;0.43;;;;;;;12.24;86.97;95243.28;4357752;32;20227;-65
2023/08/07 04:38:50;;;;;;;0.77;0.77;;;;;;;12.50;86.48;95246.03;4342150;32;20185;-65
2023/08/07 04:41:15;;;;;;;0.33;0.33;;;;;;;12.58;86.08;95253.28;4353641;32;20260;-65
2023/08/07 04:43:42;;;;;;;0.50;0.50;;;;;;;12.56;85.20;95255.44;4340022;32;20296;-65
2023/08/07 04:46:09;;;;;;;0.43;0.43;;;;;;;12.44;86.29;95255.25;4355923;32;20250;-65
2023/08/07 04:48:37;;;;;;;0.20;0.20;;;;;;;12.49;85.32;95252.44;4343702;32;20330;-64
2023/08/07 04:51:03;;;;;;;0.50;0.50;;;;;;;12.55;84.93;95273.28;4339405;32;20197;-64
2023/08/07 04:53:28;;;;;;;0.10;0.10;;;;;;;12.56;84.82;95276.75;4354146;32;20207;-64
2023/08/07 04:55:53;;;;;;;0.30;0.30;;;;;;;12.55;83.61;95267.19;4350065;32;20243;-64
2023/08/07 04:58:19;;;;;;;0.00;0.00;;;;;;;12.53;83.87;95264.03;4344575;32;20194;-65
2023/08/07 05:00:44;;;;;;;0.50;0.50;;;;;;;12.62;85.08;95275.53;4353356;32;20235;-65
2023/08/07 05:03:10;;;;;;;0.47;0.47;;;;;;;12.70;84.83;95264.12;4351922;32;20231;-65
2023/08/07 05:05:37;;;;;;;5.70;0.80;;;;;;;12.78;82.23;95286.53;4338762;32;20246;-65
2023/08/07 05:08:03;;;;;;;0.10;0.10;;;;;;;12.64;82.23;95278.66;4352619;32;20196;-64
2023/08/07 05:10:28;;;;;;;1.60;0.93;;;;;;;12.83;82.08;95279.22;4342511;32;20220;-65
2023/08/07 05:12:55;;;;;;;0.50;0.50;;;;;;;12.79;83.09;95283.56;4353220;32;20295;-64
2023/08/07 05:15:22;;;;;;;0.33;0.33;;;;;;;12.73;82.36;95268.81;4357608;32;20184;-65
2023/08/07 05:17:48;;;;;;;0.03;0.03;;;;;;;12.84;81.36;95277.34;4355380;32;20252;-65
2023/08/07 05:20:13;;;;;;;0.30;0.30;;;;;;;12.60;81.47;95291.81;4334276;32;20322;-65
2023/08/07 05:22:38;;;;;;;0.10;0.10;;;;;;;12.64;81.97;95286.66;4353858;32;20203;-66
2023/08/07 05:25:04;;;;;;;0.20;0.20;;;;;;;12.70;82.41;95296.06;4352722;32;20270;-65
2023/08/07 05:27:30;;;;;;;0.20;0.20;;;;;;;12.76;82.22;95286.06;4345466;32;20245;-65
2023/08/07 05:29:55;;;;;;;0.30;0.30;;;;;;;12.85;81.06;95285.00;4351734;32;20213;-64
2023/08/07 05:32:20;;;;;;;0.50;0.50;;;;;;;12.71;81.28;95284.31;4361463;32;20207;-65
2023/08/07 05:34:46;;;;;;;1.00;0.10;;;;;;;12.75;79.99;95298.59;4355840;32;20188;-65
2023/08/07 05:37:11;;;;;;;0.20;0.20;;;;;;;12.86;80.88;95294.56;4343020;32;20190;-65
2023/08/07 05:39:37;;;;;;;1.37;0.50;;;;;;;12.76;79.91;95284.19;4345234;32;20341;-65
2023/08/07 05:42:02;;;;;;;0.90;0.90;;;;;;;12.60;79.81;95296.34;4342449;32;20197;-65
2023/08/07 05:44:28;;;;;;;0.20;0.20;;;;;;;12.68;79.95;95287.59;4348546;32;20208;-65
2023/08/07 05:46:53;;;;;;;0.17;0.17;;;;;;;12.66;80.02;95303.88;4357692;32;20233;-64
2023/08/07 05:49:20;;;;;;;0.13;0.13;;;;;;;12.82;79.92;95301.59;4346667;32;20207;-65
2023/08/07 05:51:46;;;;;;;0.30;0.30;;;;;;;12.66;79.71;95311.09;4341763;32;20193;-65
2023/08/07 05:54:14;;;;;;;0.20;0.20;;;;;;;12.71;79.84;95313.59;4350632;32;20192;-65
2023/08/07 05:56:41;;;;;;;11.43;0.70;;;;;;;12.79;81.05;95320.06;4342397;32;20215;-65
2023/08/07 05:59:06;;;;;;;3.33;1.13;;;;;;;12.64;79.66;95319.38;4325390;32;20209;-65
2023/08/07 06:01:31;;;;;;;0.30;0.30;;;;;;;12.54;79.76;95332.16;4343604;32;20278;-65
2023/08/07 06:03:57;;;;;;;0.57;0.57;;;;;;;12.61;80.04;95325.31;4350627;32;20207;-65
2023/08/07 06:06:25;;;;;;;0.20;0.20;;;;;;;12.67;80.12;95333.94;4355576;32;20211;-65
2023/08/07 06:08:50;;;;;;;0.43;0.43;;;;;;;12.74;79.56;95323.63;4348541;32;20238;-65
2023/08/07 06:11:15;;;;;;;0.93;0.50;;;;;;;12.79;79.56;95326.16;4354384;32;20197;-65
2023/08/07 06:13:41;;;;;;;0.30;0.30;;;;;;;12.62;79.24;95320.78;4354897;32;20219;-65
2023/08/07 06:16:06;;;;;;;1.70;0.73;;;;;;;12.60;79.66;95344.25;4338320;32;20259;-65
2023/08/07 06:18:32;;;;;;;0.33;0.33;;;;;;;12.77;79.57;95323.03;4334517;32;20194;-65
2023/08/07 06:20:57;;;;;;;0.53;0.53;;;;;;;12.70;78.40;95325.34;4333346;32;20190;-64
2023/08/07 06:23:23;;;;;;;0.50;0.50;;;;;;;12.62;79.69;95334.06;4325605;32;20189;-65
2023/08/07 06:25:48;;;;;;;0.53;0.53;;;;;;;12.69;78.87;95331.75;4322922;32;20190;-65
2023/08/07 06:28:13;;;;;;;0.33;0.33;;;;;;;12.89;79.19;95333.88;4340588;32;20261;-65
2023/08/07 06:30:39;;;;;;;0.53;0.53;;;;;;;12.84;79.11;95344.69;4342156;32;20189;-65
2023/08/07 06:33:04;;;;;;;0.33;0.33;;;;;;;12.80;79.27;95335.72;4326330;32;20217;-65
2023/08/07 06:35:29;;;;;;;0.10;0.10;;;;;;;12.80;78.66;95343.72;4334253;32;20197;-65
2023/08/07 06:37:55;;;;;;;0.73;0.40;;;;;;;12.83;77.70;95343.09;4336688;32;20201;-64
2023/08/07 06:40:20;;;;;;;0.20;0.20;;;;;;;12.97;76.91;95338.47;4346073;32;20244;-65
2023/08/07 06:42:45;;;;;;;1.20;0.50;;;;;;;13.02;77.29;95338.31;4329669;32;20204;-65
2023/08/07 06:45:11;;;;;;;0.73;0.73;;;;;;;13.00;77.53;95342.38;4338280;32;20220;-65
2023/08/07 06:47:36;;;;;;;0.93;0.50;;;;;;;12.85;76.88;95348.12;4340096;32;20248;-65
2023/08/07 06:50:02;;;;;;;0.30;0.30;;;;;;;12.76;76.50;95353.41;4336519;32;20185;-65
2023/08/07 06:52:27;;;;;;;1.67;0.47;;;;;;;13.01;78.51;95350.06;4341186;32;20227;-65
2023/08/07 06:54:53;;;;;;;0.00;0.00;;;;;;;13.01;76.14;95349.28;4329578;32;20217;-65
2023/08/07 06:57:18;;;;;;;0.20;0.20;;;;;;;13.22;75.53;95344.22;4329938;32;20194;-65
2023/08/07 06:59:44;;;;;;;0.40;0.40;;;;;;;13.41;75.89;95363.41;4327726;32;20338;-64
2023/08/07 07:02:09;;;;;;;0.40;0.40;;;;;;;13.37;74.52;95341.91;4326628;32;20185;-65
2023/08/07 07:04:36;;;;;;;0.57;0.57;;;;;;;13.45;75.25;95351.03;4332394;32;20233;-65
2023/08/07 07:07:02;;;;;;;0.17;0.17;;;;;;;13.67;74.85;95342.91;4337331;32;20189;-65
2023/08/07 07:09:28;;;;;;;0.67;0.33;;;;;;;13.60;73.22;95355.12;4331790;32;20181;-64
2023/08/07 07:11:54;;;;;;;4.97;0.60;;;;;;;13.54;73.01;95367.03;4339069;32;20243;-65
2023/08/07 07:14:19;;;;;;;0.33;0.33;;;;;;;13.74;74.01;95363.75;4331588;32;20177;-65
2023/08/07 07:16:45;;;;;;;0.97;0.43;;;;;;;13.86;73.77;95360.50;4327915;32;20212;-65
2023/08/07 07:19:10;;;;;;;0.20;0.20;;;;;;;13.77;71.94;95369.25;4332243;32;20244;-65
2023/08/07 07:21:36;;;;;;;0.30;0.30;;;;;;;13.96;72.19;95368.97;4344315;32;20207;-65
2023/08/07 07:24:02;;;;;;;0.20;0.20;;;;;;;14.10;73.23;95364.28;4327440;32;20197;-65
2023/08/07 07:26:27;;;;;;;0.77;0.60;;;;;;;14.18;71.33;95373.34;4330813;32;20185;-65
2023/08/07 07:28:52;;;;;;;0.60;0.53;;;;;;;14.23;70.50;95389.22;4333182;32;20216;-65
2023/08/07 07:31:18;;;;;;;0.27;0.27;;;;;;;14.42;69.75;95387.03;4341411;32;20193;-64
2023/08/07 07:33:43;;;;;;;0.63;0.60;;;;;;;14.24;69.96;95385.47;4341127;32;20268;-65
2023/08/07 07:36:16;;;;;;;0.70;0.70;;;;;;;14.36;70.01;95393.59;4332551;32;20209;-65
2023/08/07 07:38:41;;;;;;;0.53;0.40;;;;;;;14.48;70.81;95400.22;4337093;32;20286;-65
2023/08/07 07:41:10;;;;;;;5.50;0.73;;;;;;;14.69;69.45;95385.13;4339232;32;20193;-65
2023/08/07 07:43:35;;;;;;;1.50;0.93;;;;;;;14.70;67.92;95392.03;4334598;32;20225;-65
2023/08/07 07:46:01;;;;;;;0.30;0.30;;;;;;;14.72;68.60;95397.84;4339624;32;20211;-67
2023/08/07 07:48:26;;;;;;;1.00;0.77;;;;;;;14.89;69.57;95399.69;4335719;32;20192;-66
2023/08/07 07:50:53;;;;;;;0.13;0.13;;;;;;;14.81;67.72;95395.94;4340849;32;20194;-67
2023/08/07 07:53:18;;;;;;;2.03;0.60;;;;;;;14.78;69.06;95404.56;4353384;32;20189;-67
2023/08/07 07:55:47;;;;;;;1.13;1.07;;;;;;;14.66;68.72;95407.13;4339299;32;20347;-67
2023/08/07 07:58:13;;;;;;;0.43;0.43;;;;;;;14.48;69.34;95410.91;4334298;32;20220;-67
2023/08/07 08:00:38;;;;;;;0.30;0.30;;;;;;;14.50;70.84;95414.84;4330335;32;20197;-65
2023/08/07 08:03:04;;;;;;;0.30;0.30;;;;;;;14.50;69.48;95414.06;4331946;32;20304;-65
2023/08/07 08:05:29;;;;;;;0.30;0.30;;;;;;;14.37;68.94;95419.19;4325014;32;20206;-65
2023/08/07 08:07:54;;;;;;;0.50;0.50;;;;;;;14.34;69.30;95424.41;4338764;32;20232;-64
2023/08/07 08:10:20;;;;;;;0.43;0.43;;;;;;;14.54;70.08;95436.34;4321037;32;20201;-65
2023/08/07 08:12:45;;;;;;;0.30;0.30;;;;;;;14.35;69.62;95424.06;4329054;32;20193;-65
2023/08/07 08:15:10;;;;;;;0.50;0.50;;;;;;;14.29;70.65;95425.34;4342573;32;20211;-65
2023/08/07 08:17:36;;;;;;;0.17;0.17;;;;;;;14.14;69.95;95423.09;4339387;32;20212;-65
2023/08/07 08:20:01;;;;;;;0.40;0.40;;;;;;;14.20;69.76;95421.06;4339877;32;20193;-65
2023/08/07 08:22:27;;;;;;;2.10;0.70;;;;;;;14.35;71.17;95432.06;4332555;32;20202;-65
2023/08/07 08:24:52;;;;;;;4.00;0.37;;;;;;;14.19;69.71;95435.50;4341997;32;20186;-65
2023/08/07 08:27:17;;;;;;;0.10;0.10;;;;;;;14.41;70.50;95430.84;4333881;32;20193;-65
2023/08/07 08:29:43;;;;;;;0.60;0.60;;;;;;;14.28;70.54;95444.31;4336336;32;20197;-65
2023/08/07 08:32:09;;;;;;;0.20;0.20;;;;;;;14.23;69.16;95431.91;4338240;32;20194;-65
2023/08/07 08:34:34;;;;;;;0.30;0.30;;;;;;;14.15;69.34;95431.91;4323342;32;20198;-65
2023/08/07 08:37:00;;;;;;;3.30;0.40;;;;;;;14.40;71.76;95436.47;4339314;32;20220;-65
2023/08/07 08:39:25;;;;;;;9.30;0.70;;;;;;;14.30;71.02;95440.25;4331671;32;20236;-65
2023/08/07 08:41:50;;;;;;;0.57;0.57;;;;;;;14.43;69.66;95431.31;4328896;32;20252;-65
2023/08/07 08:44:19;;;;;;;10.47;0.57;;;;;;;14.23;69.98;95441.81;4332683;32;20194;-65
2023/08/07 08:46:48;;;;;;;0.30;0.30;;;;;;;14.15;69.09;95440.69;4336212;32;20314;-65
2023/08/07 08:49:20;;;;;;;0.07;0.07;;;;;;;14.27;69.01;95443.53;4332933;32;20212;-65
2023/08/07 08:51:46;;;;;;;0.20;0.20;;;;;;;14.36;68.17;95451.53;4330010;32;20204;-65
2023/08/07 08:54:13;;;;;;;0.23;0.23;;;;;;;14.28;69.37;95471.81;4344117;32;20213;-65
2023/08/07 08:56:39;;;;;;;0.47;0.47;;;;;;;14.20;70.29;95442.44;4343265;32;20217;-65
2023/08/07 08:59:04;;;;;;;0.80;0.50;;;;;;;14.22;69.69;95457.03;4334595;32;20252;-65
2023/08/07 09:01:30;;;;;;;0.33;0.33;;;;;;;14.22;69.10;95457.03;4348594;32;20193;-65
2023/08/07 09:03:56;;;;;;;0.37;0.37;;;;;;;14.40;70.92;95466.66;4335716;32;20228;-65
2023/08/07 09:06:22;;;;;;;2.53;0.40;;;;;;;14.56;69.83;95471.50;4344710;32;20240;-65
2023/08/07 09:08:49;;;;;;;0.20;0.20;;;;;;;14.58;69.05;95475.44;4319395;32;20236;-65
2023/08/07 09:11:15;;;;;;;3.60;0.60;;;;;;;14.48;69.64;95464.31;4333884;32;20322;-65
2023/08/07 09:13:44;;;;;;;0.63;0.63;;;;;;;14.44;68.70;95485.50;4341288;32;20186;-65
2023/08/07 09:16:11;;;;;;;0.93;0.63;;;;;;;14.56;69.66;95466.16;4331934;32;20216;-65
2023/08/07 09:18:36;;;;;;;0.57;0.43;;;;;;;14.61;68.03;95466.81;4332999;32;20204;-65
2023/08/07 09:21:02;;;;;;;0.67;0.43;;;;;;;14.46;67.80;95472.63;4337442;32;20190;-65
2023/08/07 09:23:28;;;;;;;1.17;0.63;;;;;;;14.56;67.63;95477.62;4336831;32;20296;-65
2023/08/07 09:26:08;;;;;;;0.67;0.50;;;;;;;14.71;68.76;95469.16;4333566;32;20197;-65
2023/08/07 09:28:33;;;;;;;0.30;0.30;;;;;;;14.63;68.10;95469.16;4327180;32;20196;-65
2023/08/07 09:30:59;;;;;;;0.03;0.03;;;;;;;14.65;69.49;95477.66;4339039;32;20251;-64
2023/08/07 09:33:26;;;;;;;1.23;0.73;;;;;;;14.83;70.21;95473.84;4328240;32;20178;-64
2023/08/07 09:35:52;;;;;;;0.23;0.23;;;;;;;14.83;68.65;95471.19;4324631;32;20189;-65
2023/08/07 09:38:18;;;;;;;0.47;0.47;;;;;;;14.89;69.09;95469.94;4341401;32;20184;-65
2023/08/07 09:40:43;;;;;;;0.30;0.30;;;;;;;14.93;69.39;95491.47;4335314;32;21988;-65
2023/08/07 09:43:08;;;;;;;0.10;0.10;;;;;;;14.96;68.06;95470.25;4336997;32;20208;-65
2023/08/07 09:45:36;;;;;;;0.10;0.10;;;;;;;14.99;69.54;95466.13;4327167;32;20212;-65
2023/08/07 09:48:08;;;;;;;0.17;0.17;;;;;;;15.05;69.00;95476.34;4336786;32;20246;-65
2023/08/07 09:50:34;;;;;;;0.37;0.37;;;;;;;15.07;68.41;95482.16;4342916;32;20195;-65
2023/08/07 09:52:59;;;;;;;0.83;0.60;;;;;;;15.21;68.26;95471.28;4336341;32;20233;-65
2023/08/07 09:55:26;;;;;;;0.50;0.50;;;;;;;15.14;67.89;95471.00;4340793;32;20217;-65
2023/08/07 09:57:52;;;;;;;0.03;0.03;;;;;;;15.07;67.94;95486.72;4343057;32;20215;-66
2023/08/07 10:00:21;;;;;;;0.10;0.10;;;;;;;15.08;69.19;95464.25;4342627;32;20189;-65
2023/08/07 10:02:50;;;;;;;0.47;0.40;;;;;;;15.27;68.56;95463.88;4342099;32;20185;-65
2023/08/07 10:05:17;;;;;;;0.87;0.43;;;;;;;15.40;70.26;95465.56;4343184;32;20189;-65
2023/08/07 10:07:42;;;;;;;0.20;0.20;;;;;;;15.20;68.34;95464.34;4341696;32;20216;-65
2023/08/07 10:10:09;;;;;;;2.03;0.60;;;;;;;15.27;67.04;95469.22;4341827;32;20201;-66
2023/08/07 10:12:36;;;;;;;0.40;0.40;;;;;;;15.47;68.78;95473.87;4342059;32;20182;-65
2023/08/07 10:15:02;;;;;;;0.70;0.50;;;;;;;15.38;66.33;95470.47;4337056;32;20283;-66
2023/08/07 10:17:29;;;;;;;0.57;0.57;;;;;;;15.67;66.43;95462.50;4331407;32;20189;-65
2023/08/07 10:19:57;;;;;;;0.40;0.40;;;;;;;15.85;64.60;95459.72;4333904;32;20194;-65
2023/08/07 10:22:28;;;;;;;0.40;0.40;;;;;;;15.92;65.11;95457.34;4333794;32;20241;-66
2023/08/07 10:24:56;;;;;;;2.93;0.83;;;;;;;15.91;64.00;95477.19;4325329;32;20206;-65
2023/08/07 10:27:24;;;;;;;0.53;0.53;;;;;;;15.76;64.42;95460.56;4331403;32;20245;-65
2023/08/07 10:29:52;;;;;;;1.07;0.50;;;;;;;15.91;65.21;95451.19;4339934;32;20209;-65
2023/08/07 10:32:20;;;;;;;0.40;0.40;;;;;;;16.09;65.93;95463.38;4328023;32;20222;-66
2023/08/07 10:34:54;;;;;;;0.20;0.20;;;;;;;16.15;64.46;95453.25;4347257;32;20201;-65
2023/08/07 10:37:46;;;;;;;4.27;1.23;;;;;;;16.25;64.18;95458.22;4343842;32;20196;-66
2023/08/07 10:40:12;;;;;;;0.60;0.60;;;;;;;16.35;64.32;95449.81;4337525;32;20198;-66
2023/08/07 10:42:58;;;;;;;0.60;0.47;;;;;;;16.52;64.58;95458.81;4331973;32;20237;-65
2023/08/07 10:45:24;;;;;;;0.13;0.13;;;;;;;16.49;63.58;95455.69;4337606;32;20197;-65
2023/08/07 10:48:10;;;;;;;0.20;0.20;;;;;;;16.63;64.21;95444.72;4342807;32;20189;-66
2023/08/07 10:50:54;;;;;;;0.87;0.67;;;;;;;16.47;62.79;95447.19;4337964;32;20221;-66
2023/08/07 10:53:30;;;;;;;0.93;0.93;;;;;;;16.23;63.54;95443.59;4340515;32;20201;-65
2023/08/07 10:55:58;;;;;;;0.10;0.10;;;;;;;16.21;62.07;95448.50;4325205;32;20237;-65
2023/08/07 10:58:26;;;;;;;0.13;0.13;;;;;;;16.44;63.56;95444.38;4337486;32;20220;-67
2023/08/07 11:01:22;;;;;;;0.20;0.20;;;;;;;16.52;63.44;95442.75;4344147;32;20228;-65
2023/08/07 11:03:55;;;;;;;0.87;0.47;;;;;;;16.65;62.40;95433.69;4326953;32;20228;-65
2023/08/07 11:06:28;;;;;;;0.70;0.70;;;;;;;17.00;63.22;95434.94;4346221;32;20193;-65
2023/08/07 11:08:53;;;;;;;0.13;0.13;;;;;;;16.89;61.24;95447.19;4334763;32;20199;-65
2023/08/07 11:11:19;;;;;;;0.37;0.37;;;;;;;16.73;61.29;95443.53;4335348;32;20191;-65
2023/08/07 11:13:45;;;;;;;0.30;0.30;;;;;;;16.74;63.08;95445.13;4339895;32;20284;-65
2023/08/07 11:16:11;;;;;;;0.20;0.20;;;;;;;16.84;63.81;95439.34;4339822;32;20259;-65
2023/08/07 11:18:40;;;;;;;0.60;0.60;;;;;;;16.83;60.37;95430.50;4340999;32;20260;-65
2023/08/07 11:21:06;;;;;;;0.40;0.40;;;;;;;16.95;60.87;95437.81;4331923;32;20255;-65
2023/08/07 11:23:32;;;;;;;0.30;0.30;;;;;;;17.07;60.68;95421.75;4338257;32;20190;-65
2023/08/07 11:25:57;;;;;;;0.10;0.10;;;;;;;16.99;60.21;95432.59;4323963;32;20186;-65
2023/08/07 11:28:24;;;;;;;0.30;0.30;;;;;;;17.01;62.38;95425.78;4335532;32;20189;-65
2023/08/07 11:30:55;;;;;;;0.40;0.40;;;;;;;17.14;63.72;95424.69;4335059;32;20241;-65